sensor_id;sensor_type;location;lat;lon;timestamp;pressure;altitude;pressure_sealevel;temperature;humidity
69766;BME280;57039;48.014;21.384;2022-07-29T00:00:41;100612.50;;;22.95;59.01
69766;BME280;57039;48.014;21.384;2022-07-29T00:10:49;100607.59;;;22.83;59.53
69766;BME280;57039;48.014;21.384;2022-07-29T00:20:52;100616.09;;;22.78;59.87
69766;BME280;57039;48.014;21.384;2022-07-29T00:30:56;100615.25;;;22.77;59.97
69766;BME280;57039;48.014;21.384;2022-07-29T00:41:00;100614.69;;;22.66;60.42
69766;BME280;57039;48.014;21.384;2022-07-29T00:51:11;100603.97;;;22.58;60.76
69766;BME280;57039;48.014;21.384;2022-07-29T01:01:16;100612.81;;;22.58;60.59
69766;BME280;57039;48.014;21.384;2022-07-29T01:11:20;100607.06;;;22.45;60.86
69766;BME280;57039;48.014;21.384;2022-07-29T01:21:50;100600.69;;;22.38;61.34
69766;BME280;57039;48.014;21.384;2022-07-29T01:32:08;100595.12;;;22.31;61.67
69766;BME280;57039;48.014;21.384;2022-07-29T01:42:37;100590.13;;;22.10;62.11
69766;BME280;57039;48.014;21.384;2022-07-29T01:53:07;100587.78;;;22.07;62.15
69766;BME280;57039;48.014;21.384;2022-07-29T02:03:14;100579.41;;;22.02;62.25
69766;BME280;57039;48.014;21.384;2022-07-29T02:13:21;100574.41;;;22.07;61.97
69766;BME280;57039;48.014;21.384;2022-07-29T02:23:30;100579.87;;;21.97;62.17
69766;BME280;57039;48.014;21.384;2022-07-29T02:33:56;100586.66;;;21.92;62.23
69766;BME280;57039;48.014;21.384;2022-07-29T02:44:09;100604.22;;;21.94;62.32
69766;BME280;57039;48.014;21.384;2022-07-29T02:54:41;100588.41;;;21.75;62.88
69766;BME280;57039;48.014;21.384;2022-07-29T03:04:47;100591.53;;;21.52;63.80
69766;BME280;57039;48.014;21.384;2022-07-29T03:14:52;100588.88;;;21.52;63.84
69766;BME280;57039;48.014;21.384;2022-07-29T03:24:57;100591.94;;;21.30;64.64
69766;BME280;57039;48.014;21.384;2022-07-29T03:35:08;100585.25;;;21.26;64.89
69766;BME280;57039;48.014;21.384;2022-07-29T03:45:17;100586.31;;;21.33;64.98
69766;BME280;57039;48.014;21.384;2022-07-29T03:55:22;100590.66;;;21.34;65.23
69766;BME280;57039;48.014;21.384;2022-07-29T04:05:26;100588.69;;;21.54;64.57
69766;BME280;57039;48.014;21.384;2022-07-29T04:15:30;100595.66;;;21.64;64.60
69766;BME280;57039;48.014;21.384;2022-07-29T04:25:47;100604.47;;;21.83;63.93
69766;BME280;57039;48.014;21.384;2022-07-29T04:35:51;100616.56;;;21.95;64.05
69766;BME280;57039;48.014;21.384;2022-07-29T04:46:02;100608.47;;;22.23;63.24
69766;BME280;57039;48.014;21.384;2022-07-29T04:56:06;100607.16;;;22.27;63.68
69766;BME280;57039;48.014;21.384;2022-07-29T05:06:18;100614.03;;;22.11;64.00
69766;BME280;57039;48.014;21.384;2022-07-29T05:16:21;100617.44;;;22.48;62.95
69766;BME280;57039;48.014;21.384;2022-07-29T05:26:24;100611.75;;;22.85;61.90
69766;BME280;57039;48.014;21.384;2022-07-29T05:36:34;100619.81;;;23.52;60.14
69766;BME280;57039;48.014;21.384;2022-07-29T05:46:38;100641.38;;;24.57;57.26
69766;BME280;57039;48.014;21.384;2022-07-29T05:56:54;100633.31;;;25.36;54.70
69766;BME280;57039;48.014;21.384;2022-07-29T06:07:12;100632.22;;;24.27;56.96
69766;BME280;57039;48.014;21.384;2022-07-29T06:17:16;100630.53;;;25.52;53.74
69766;BME280;57039;48.014;21.384;2022-07-29T06:27:20;100648.22;;;26.07;52.47
69766;BME280;57039;48.014;21.384;2022-07-29T06:37:36;100634.78;;;26.75;51.74
69766;BME280;57039;48.014;21.384;2022-07-29T06:47:40;100646.28;;;27.56;48.47
69766;BME280;57039;48.014;21.384;2022-07-29T06:57:45;100632.09;;;27.69;48.65
69766;BME280;57039;48.014;21.384;2022-07-29T07:08:03;100637.75;;;28.23;47.78
69766;BME280;57039;48.014;21.384;2022-07-29T07:18:07;100633.41;;;28.29;48.12
69766;BME280;57039;48.014;21.384;2022-07-29T07:28:14;100637.94;;;29.53;45.23
69766;BME280;57039;48.014;21.384;2022-07-29T07:38:27;100635.06;;;29.94;43.92
69766;BME280;57039;48.014;21.384;2022-07-29T07:48:33;100636.72;;;30.02;44.80
69766;BME280;57039;48.014;21.384;2022-07-29T07:58:39;100632.47;;;29.26;47.01
69766;BME280;57039;48.014;21.384;2022-07-29T08:08:46;100629.84;;;28.92;47.49
69766;BME280;57039;48.014;21.384;2022-07-29T08:18:50;100639.63;;;28.51;48.59
69766;BME280;57039;48.014;21.384;2022-07-29T08:28:56;100642.00;;;28.11;49.13
69766;BME280;57039;48.014;21.384;2022-07-29T08:39:01;100636.03;;;29.40;46.98
69766;BME280;57039;48.014;21.384;2022-07-29T08:49:13;100637.34;;;29.91;45.11
69766;BME280;57039;48.014;21.384;2022-07-29T08:59:19;100637.88;;;30.66;43.19
69766;BME280;57039;48.014;21.384;2022-07-29T09:09:24;100633.19;;;29.88;45.06
69766;BME280;57039;48.014;21.384;2022-07-29T09:19:32;100630.72;;;29.87;45.41
69766;BME280;57039;48.014;21.384;2022-07-29T09:29:37;100629.34;;;30.62;43.18
69766;BME280;57039;48.014;21.384;2022-07-29T09:39:42;100620.78;;;31.55;42.12
69766;BME280;57039;48.014;21.384;2022-07-29T09:49:56;100621.97;;;31.91;40.38
69766;BME280;57039;48.014;21.384;2022-07-29T10:00:08;100604.28;;;32.69;38.01
69766;BME280;57039;48.014;21.384;2022-07-29T10:20:27;100585.53;;;31.24;40.43
69766;BME280;57039;48.014;21.384;2022-07-29T10:30:31;100578.63;;;32.65;37.92
69766;BME280;57039;48.014;21.384;2022-07-29T10:41:00;100572.19;;;32.41;38.01
69766;BME280;57039;48.014;21.384;2022-07-29T11:01:57;100558.53;;;32.96;37.44
69766;BME280;57039;48.014;21.384;2022-07-29T11:22:44;100552.69;;;34.75;33.01
69766;BME280;57039;48.014;21.384;2022-07-29T11:32:49;100549.37;;;33.74;34.17
69766;BME280;57039;48.014;21.384;2022-07-29T11:42:59;100532.13;;;34.04;34.23
69766;BME280;57039;48.014;21.384;2022-07-29T11:53:10;100517.84;;;34.78;32.44
69766;BME280;57039;48.014;21.384;2022-07-29T12:03:27;100508.88;;;35.44;31.03
69766;BME280;57039;48.014;21.384;2022-07-29T12:13:39;100487.56;;;35.97;29.77
69766;BME280;57039;48.014;21.384;2022-07-29T12:23:55;100489.62;;;36.07;29.05
69766;BME280;57039;48.014;21.384;2022-07-29T12:34:06;100466.31;;;35.27;29.75
69766;BME280;57039;48.014;21.384;2022-07-29T12:44:15;100464.84;;;35.19;31.57
69766;BME280;57039;48.014;21.384;2022-07-29T12:54:19;100463.13;;;35.69;29.93
69766;BME280;57039;48.014;21.384;2022-07-29T13:04:31;100442.53;;;36.00;28.95
69766;BME280;57039;48.014;21.384;2022-07-29T13:14:40;100423.22;;;35.84;28.64
69766;BME280;57039;48.014;21.384;2022-07-29T13:24:48;100406.91;;;36.11;27.74
69766;BME280;57039;48.014;21.384;2022-07-29T13:34:53;100394.59;;;35.87;27.64
69766;BME280;57039;48.014;21.384;2022-07-29T13:44:57;100382.13;;;35.96;27.91
69766;BME280;57039;48.014;21.384;2022-07-29T13:55:05;100369.69;;;35.44;29.45
69766;BME280;57039;48.014;21.384;2022-07-29T14:05:09;100371.06;;;34.41;30.03
69766;BME280;57039;48.014;21.384;2022-07-29T14:15:21;100372.75;;;34.92;27.81
69766;BME280;57039;48.014;21.384;2022-07-29T14:25:26;100355.19;;;34.38;26.05
69766;BME280;57039;48.014;21.384;2022-07-29T14:35:38;100353.56;;;34.87;27.26
69766;BME280;57039;48.014;21.384;2022-07-29T14:45:57;100348.38;;;34.86;26.90
69766;BME280;57039;48.014;21.384;2022-07-29T14:56:11;100343.88;;;34.29;28.22
69766;BME280;57039;48.014;21.384;2022-07-29T15:07:06;100331.87;;;33.09;30.09
69766;BME280;57039;48.014;21.384;2022-07-29T15:17:13;100323.94;;;33.07;29.78
69766;BME280;57039;48.014;21.384;2022-07-29T15:27:20;100307.87;;;33.06;29.31
69766;BME280;57039;48.014;21.384;2022-07-29T15:37:26;100286.94;;;33.06;29.19
69766;BME280;57039;48.014;21.384;2022-07-29T15:47:54;100282.53;;;32.93;30.42
69766;BME280;57039;48.014;21.384;2022-07-29T15:57:58;100275.69;;;32.56;30.26
69766;BME280;57039;48.014;21.384;2022-07-29T16:08:06;100272.75;;;32.69;30.15
69766;BME280;57039;48.014;21.384;2022-07-29T16:18:35;100267.56;;;32.56;30.48
69766;BME280;57039;48.014;21.384;2022-07-29T16:28:42;100271.50;;;32.41;30.55
69766;BME280;57039;48.014;21.384;2022-07-29T16:38:49;100281.41;;;32.24;31.29
69766;BME280;57039;48.014;21.384;2022-07-29T16:48:52;100271.47;;;31.88;30.67
69766;BME280;57039;48.014;21.384;2022-07-29T16:59:01;100270.94;;;31.49;31.80
69766;BME280;57039;48.014;21.384;2022-07-29T17:09:06;100273.56;;;31.55;31.93
69766;BME280;57039;48.014;21.384;2022-07-29T17:19:10;100279.38;;;31.41;32.53
69766;BME280;57039;48.014;21.384;2022-07-29T17:29:14;100287.31;;;30.99;34.39
69766;BME280;57039;48.014;21.384;2022-07-29T17:39:18;100296.91;;;30.51;34.67
69766;BME280;57039;48.014;21.384;2022-07-29T17:49:21;100313.25;;;30.38;35.81
69766;BME280;57039;48.014;21.384;2022-07-29T17:59:29;100317.38;;;30.09;36.76
69766;BME280;57039;48.014;21.384;2022-07-29T18:09:37;100320.44;;;29.80;36.96
69766;BME280;57039;48.014;21.384;2022-07-29T18:19:45;100309.75;;;29.41;38.79
69766;BME280;57039;48.014;21.384;2022-07-29T18:29:57;100328.75;;;28.87;40.40
69766;BME280;57039;48.014;21.384;2022-07-29T18:40:08;100345.13;;;28.53;41.70
69766;BME280;57039;48.014;21.384;2022-07-29T18:50:12;100348.16;;;28.23;41.93
69766;BME280;57039;48.014;21.384;2022-07-29T19:00:19;100359.03;;;27.82;42.37
69766;BME280;57039;48.014;21.384;2022-07-29T19:10:27;100369.72;;;27.62;44.00
69766;BME280;57039;48.014;21.384;2022-07-29T19:20:31;100375.56;;;27.37;46.02
69766;BME280;57039;48.014;21.384;2022-07-29T19:30:37;100369.53;;;27.28;47.51
69766;BME280;57039;48.014;21.384;2022-07-29T19:40:42;100359.47;;;27.16;47.96
69766;BME280;57039;48.014;21.384;2022-07-29T19:50:46;100355.47;;;26.62;50.28
69766;BME280;57039;48.014;21.384;2022-07-29T20:11:47;100372.31;;;26.28;52.84
69766;BME280;57039;48.014;21.384;2022-07-29T20:21:54;100372.41;;;26.19;53.32
69766;BME280;57039;48.014;21.384;2022-07-29T20:31:59;100362.91;;;26.02;54.71
69766;BME280;57039;48.014;21.384;2022-07-29T20:42:04;100385.25;;;26.03;55.11
69766;BME280;57039;48.014;21.384;2022-07-29T20:52:11;100373.03;;;25.56;55.90
69766;BME280;57039;48.014;21.384;2022-07-29T21:02:15;100415.72;;;25.36;57.00
69766;BME280;57039;48.014;21.384;2022-07-29T21:12:25;100416.66;;;25.28;56.76
69766;BME280;57039;48.014;21.384;2022-07-29T21:22:32;100421.62;;;25.16;57.65
69766;BME280;57039;48.014;21.384;2022-07-29T21:32:44;100446.72;;;25.00;58.59
69766;BME280;57039;48.014;21.384;2022-07-29T21:42:52;100435.69;;;24.72;60.36
69766;BME280;57039;48.014;21.384;2022-07-29T21:53:01;100449.91;;;24.50;60.83
69766;BME280;57039;48.014;21.384;2022-07-29T22:03:13;100452.66;;;24.33;60.42
69766;BME280;57039;48.014;21.384;2022-07-29T22:13:17;100454.63;;;24.48;59.06
69766;BME280;57039;48.014;21.384;2022-07-29T22:23:27;100472.28;;;24.42;59.22
69766;BME280;57039;48.014;21.384;2022-07-29T22:33:38;100485.19;;;24.30;59.63
69766;BME280;57039;48.014;21.384;2022-07-29T22:43:45;100485.59;;;24.11;60.33
69766;BME280;57039;48.014;21.384;2022-07-29T22:53:48;100484.34;;;23.90;61.17
69766;BME280;57039;48.014;21.384;2022-07-29T23:03:52;100481.84;;;23.81;62.15
69766;BME280;57039;48.014;21.384;2022-07-29T23:14:01;100423.81;;;23.24;63.59
69766;BME280;57039;48.014;21.384;2022-07-29T23:24:06;100487.72;;;23.27;65.69
69766;BME280;57039;48.014;21.384;2022-07-29T23:34:10;100482.22;;;23.20;66.48
69766;BME280;57039;48.014;21.384;2022-07-29T23:44:13;100474.28;;;22.78;68.97
69766;BME280;57039;48.014;21.384;2022-07-29T23:54:18;100473.94;;;22.65;69.60
